Time;durP1;ratioP1;P1;durP2;ratioP2;P2;SDS_P1;SDS_P2;PMS_P1;PMS_P2;Temp;Humidity;BMP_temperature;BMP_pressure;BME280_temperature;BME280_humidity;BME280_pressure;Samples;Min_cycle;Max_cycle;Signal;HPM_P1;HPM_P2
2023/06/27 00:00:53;;;;;;;4.80;3.30;;;;;;;18.51;79.61;99615.36;131352;1253;107861;-76
2023/06/27 00:04:21;;;;;;;3.70;3.10;;;;;;;18.56;78.93;99606.05;131360;1253;109394;-76
2023/06/27 00:07:27;;;;;;;4.80;3.60;;;;;;;18.63;79.14;99600.17;131357;1253;107903;-76
2023/06/27 00:10:33;;;;;;;6.50;3.50;;;;;;;18.66;79.68;99599.69;131181;1251;107383;-76
2023/06/27 00:13:40;;;;;;;4.40;3.30;;;;;;;18.63;79.65;99604.83;131352;1253;107466;-76
2023/06/27 00:16:46;;;;;;;4.60;3.60;;;;;;;18.57;81.08;99602.04;131247;1263;107337;-76
2023/06/27 00:19:57;;;;;;;5.80;3.60;;;;;;;18.54;80.26;99598.50;131143;1253;107451;-77
2023/06/27 00:26:37;;;;;;;5.20;3.20;;;;;;;18.41;81.91;99584.08;127440;1290;636153;-77
2023/06/27 00:29:43;;;;;;;3.90;3.30;;;;;;;18.35;80.45;99571.95;130040;1265;109126;-77
2023/06/27 00:32:48;;;;;;;4.00;3.30;;;;;;;18.47;80.15;99566.77;130015;1269;107238;-77
2023/06/27 00:35:54;;;;;;;3.90;3.20;;;;;;;18.61;79.99;99560.27;129994;1263;107506;-78
2023/06/27 00:38:59;;;;;;;3.50;3.00;;;;;;;18.59;80.45;99561.13;129986;1266;111966;-77
2023/06/27 00:42:06;;;;;;;3.80;2.60;;;;;;;18.56;80.37;99551.27;130273;1263;107439;-77
2023/06/27 00:45:12;;;;;;;3.60;3.00;;;;;;;18.60;80.07;99537.17;130918;1257;107493;-77
2023/06/27 00:48:18;;;;;;;4.60;3.00;;;;;;;18.70;80.07;99519.11;131099;1274;107460;-77
2023/06/27 00:51:23;;;;;;;3.40;2.90;;;;;;;18.81;79.70;99508.37;130988;1251;108547;-77
2023/06/27 00:54:30;;;;;;;2.80;2.50;;;;;;;18.92;79.66;99498.27;130903;1257;107505;-77
2023/06/27 00:57:36;;;;;;;2.60;2.40;;;;;;;18.99;79.53;99494.86;130933;1251;107272;-77
2023/06/27 01:00:41;;;;;;;3.00;2.60;;;;;;;19.08;79.78;99503.20;130928;1257;107495;-77
2023/06/27 01:03:47;;;;;;;3.20;2.80;;;;;;;19.17;79.84;99511.56;130950;1256;106771;-77
2023/06/27 01:07:02;;;;;;;3.50;3.20;;;;;;;19.26;79.79;99513.33;130709;1260;108093;-75
2023/06/27 01:10:14;;;;;;;5.40;3.50;;;;;;;19.30;79.68;99515.44;130937;1257;107489;-76
2023/06/27 01:13:24;;;;;;;3.50;3.20;;;;;;;19.27;79.81;99534.20;130930;1256;107535;-76
2023/06/27 01:16:34;;;;;;;3.90;3.00;;;;;;;19.24;80.10;99534.98;130810;1251;107568;-76
2023/06/27 01:19:43;;;;;;;3.30;2.80;;;;;;;19.12;81.03;99540.52;130925;1257;107552;-76
2023/06/27 01:23:11;;;;;;;4.20;2.40;;;;;;;18.82;81.41;99533.21;130782;1259;107401;-76
2023/06/27 01:26:16;;;;;;;4.60;2.50;;;;;;;18.63;81.17;99519.77;130906;1266;107502;-76
2023/06/27 01:29:22;;;;;;;2.30;1.80;;;;;;;18.47;82.47;99516.85;130981;1257;107741;-76
2023/06/27 01:32:34;;;;;;;2.70;2.00;;;;;;;18.28;82.38;99511.05;130856;1256;107524;-76
2023/06/27 01:35:47;;;;;;;3.10;2.10;;;;;;;18.20;82.50;99503.97;130897;1257;107726;-76
2023/06/27 01:38:59;;;;;;;3.20;2.20;;;;;;;18.21;81.83;99498.39;130889;1254;107365;-76
2023/06/27 01:42:14;;;;;;;4.80;2.00;;;;;;;18.34;81.71;99490.85;130900;1251;107514;-76
2023/06/27 01:45:21;;;;;;;2.60;1.80;;;;;;;18.38;81.43;99480.91;130882;1254;107220;-77
2023/06/27 01:48:28;;;;;;;2.90;1.90;;;;;;;18.49;81.45;99470.94;130743;1254;108665;-77
2023/06/27 01:51:34;;;;;;;5.80;2.10;;;;;;;18.65;81.42;99464.91;130903;1269;107502;-76
2023/06/27 01:54:39;;;;;;;3.00;2.00;;;;;;;18.73;81.29;99464.62;130903;1257;106551;-77
2023/06/27 01:57:46;;;;;;;5.00;2.00;;;;;;;18.76;81.26;99463.02;130917;1256;107441;-77
2023/06/27 02:00:51;;;;;;;2.60;1.90;;;;;;;18.79;81.24;99458.86;130782;1254;107266;-77
2023/06/27 02:03:57;;;;;;;4.10;2.20;;;;;;;18.81;81.11;99457.94;130938;1256;108539;-76
2023/06/27 02:07:03;;;;;;;3.10;2.20;;;;;;;18.86;81.43;99444.41;130887;1256;107620;-77
2023/06/27 02:10:11;;;;;;;2.50;2.30;;;;;;;18.90;81.50;99440.37;130879;1254;107448;-77
2023/06/27 02:13:18;;;;;;;3.00;2.40;;;;;;;18.93;81.39;99447.27;130937;1254;107028;-76
2023/06/27 02:16:24;;;;;;;3.00;2.60;;;;;;;18.97;81.47;99451.01;130888;1257;107443;-77
2023/06/27 02:19:30;;;;;;;3.10;2.40;;;;;;;19.00;81.26;99449.23;130928;1256;106166;-76
2023/06/27 02:22:35;;;;;;;2.40;2.20;;;;;;;18.98;81.31;99459.67;130933;1275;107254;-77
2023/06/27 02:25:43;;;;;;;3.30;2.30;;;;;;;18.98;81.28;99460.44;130755;1254;107190;-77
2023/06/27 02:28:48;;;;;;;3.60;2.40;;;;;;;19.00;81.28;99457.12;130831;1252;107466;-79
2023/06/27 02:31:54;;;;;;;2.20;2.00;;;;;;;19.01;81.31;99462.19;130978;1257;107699;-79
2023/06/27 02:34:59;;;;;;;3.00;2.20;;;;;;;19.00;81.24;99460.86;130954;1256;107500;-84
2023/06/27 02:38:05;;;;;;;2.20;1.90;;;;;;;18.98;81.23;99458.47;130842;1260;107504;-79
2023/06/27 02:41:14;;;;;;;2.80;2.20;;;;;;;18.95;81.40;99456.19;130808;1256;107676;-83
2023/06/27 02:44:19;;;;;;;2.50;2.30;;;;;;;18.92;81.53;99456.88;130967;1256;107644;-80
2023/06/27 02:47:25;;;;;;;3.60;3.00;;;;;;;18.88;81.45;99457.98;130921;1257;107244;-79
2023/06/27 02:50:30;;;;;;;3.40;2.70;;;;;;;18.87;81.65;99457.13;130782;1259;109340;-79
2023/06/27 02:53:36;;;;;;;3.40;2.40;;;;;;;18.86;81.66;99461.59;130722;1258;107593;-79
2023/06/27 02:56:41;;;;;;;3.10;2.80;;;;;;;18.88;81.84;99465.10;130768;1256;105572;-78
2023/06/27 02:59:47;;;;;;;4.40;2.80;;;;;;;18.89;81.97;99469.91;130864;1257;106264;-78
2023/06/27 03:02:53;;;;;;;3.70;3.00;;;;;;;18.90;82.05;99471.98;130836;1256;107463;-79
2023/06/27 03:06:02;;;;;;;3.30;2.90;;;;;;;18.92;82.13;99468.86;130689;1259;107591;-80
2023/06/27 03:09:08;;;;;;;4.20;3.00;;;;;;;18.96;82.14;99476.16;130705;1259;107539;-80
2023/06/27 03:12:15;;;;;;;4.80;3.10;;;;;;;18.99;82.19;99474.68;130791;1256;107590;-79
2023/06/27 03:15:21;;;;;;;4.00;3.00;;;;;;;19.02;82.26;99468.33;130799;1254;107443;-78
2023/06/27 03:18:28;;;;;;;4.30;3.00;;;;;;;19.05;82.35;99467.38;130813;1254;106500;-78
2023/06/27 03:21:33;;;;;;;3.20;2.90;;;;;;;19.06;82.53;99466.69;130685;1257;107779;-81
2023/06/27 03:24:39;;;;;;;3.40;2.90;;;;;;;19.08;82.71;99464.34;130945;1254;106258;-79
2023/06/27 03:27:45;;;;;;;4.10;3.60;;;;;;;19.11;82.77;99460.56;130931;1259;107642;-79
2023/06/27 03:30:51;;;;;;;3.70;3.40;;;;;;;19.17;82.89;99458.61;130987;1257;107485;-79
2023/06/27 03:33:59;;;;;;;4.30;3.70;;;;;;;19.22;83.04;99458.62;130982;1254;107542;-79
2023/06/27 03:37:05;;;;;;;4.70;4.20;;;;;;;19.27;83.06;99457.52;130935;1254;107361;-79
2023/06/27 03:40:12;;;;;;;4.40;4.00;;;;;;;19.31;83.20;99459.58;131007;1256;106262;-80
2023/06/27 03:43:19;;;;;;;4.90;4.40;;;;;;;19.35;83.32;99457.15;130891;1256;107637;-80
2023/06/27 03:46:26;;;;;;;6.30;4.90;;;;;;;19.40;83.46;99458.44;130926;1257;107372;-80
2023/06/27 03:49:31;;;;;;;5.70;5.10;;;;;;;19.43;83.64;99458.23;130913;1254;107562;-79
2023/06/27 03:52:38;;;;;;;5.50;5.00;;;;;;;19.47;83.74;99454.39;130907;1259;106568;-78
2023/06/27 03:55:44;;;;;;;5.90;5.30;;;;;;;19.50;83.86;99456.80;130939;1252;107550;-79
2023/06/27 03:58:50;;;;;;;6.90;5.20;;;;;;;19.54;83.92;99462.99;130869;1257;107774;-78
2023/06/27 04:01:56;;;;;;;12.10;6.60;;;;;;;19.59;83.96;99464.55;130753;1254;107457;-79
2023/06/27 04:05:03;;;;;;;7.30;5.80;;;;;;;19.64;84.07;99466.18;130944;1259;107613;-80
2023/06/27 04:08:09;;;;;;;7.30;6.50;;;;;;;19.65;84.20;99464.24;130991;1256;107532;-80
2023/06/27 04:11:15;;;;;;;9.00;7.10;;;;;;;19.61;84.72;99471.75;130909;1252;107537;-80
2023/06/27 04:14:20;;;;;;;8.80;7.80;;;;;;;19.59;85.30;99470.70;130909;1267;106771;-79
2023/06/27 04:17:26;;;;;;;9.30;8.40;;;;;;;19.57;86.13;99468.39;130865;1267;107546;-80
2023/06/27 04:20:31;;;;;;;9.30;8.40;;;;;;;19.53;85.94;99467.24;130975;1256;107403;-78
2023/06/27 04:23:37;;;;;;;9.10;8.20;;;;;;;19.55;85.78;99469.10;130813;1257;107540;-80
2023/06/27 04:26:43;;;;;;;8.00;6.00;;;;;;;19.55;86.81;99478.83;130910;1256;106555;-80
2023/06/27 04:29:49;;;;;;;6.90;5.60;;;;;;;19.43;87.35;99485.17;130901;1267;107510;-78
2023/06/27 04:32:54;;;;;;;6.30;5.60;;;;;;;19.21;89.99;99496.65;130892;1256;107298;-79
2023/06/27 04:36:01;;;;;;;7.80;4.60;;;;;;;18.84;90.67;99502.48;130918;1254;107450;-79
2023/06/27 04:39:06;;;;;;;7.70;4.00;;;;;;;18.52;90.45;99509.33;130907;1256;107516;-79
2023/06/27 04:42:12;;;;;;;4.10;3.70;;;;;;;18.28;91.26;99505.32;130842;1271;106216;-79
2023/06/27 04:45:17;;;;;;;5.30;3.80;;;;;;;18.02;92.30;99505.75;130760;1257;107946;-79
2023/06/27 04:48:23;;;;;;;3.70;3.10;;;;;;;17.78;93.22;99507.90;130845;1256;106455;-79
2023/06/27 04:51:30;;;;;;;3.80;3.10;;;;;;;17.52;95.04;99504.20;130903;1257;107577;-80
2023/06/27 04:54:35;;;;;;;5.70;3.00;;;;;;;17.27;96.36;99512.35;130973;1260;107220;-79
2023/06/27 04:57:41;;;;;;;3.60;3.30;;;;;;;17.17;97.26;99514.21;131025;1257;107492;-79
2023/06/27 05:00:48;;;;;;;5.70;3.80;;;;;;;17.12;96.34;99515.90;130940;1256;107517;-79
2023/06/27 05:03:54;;;;;;;5.60;3.70;;;;;;;17.16;95.88;99522.44;130996;1266;107487;-79
2023/06/27 05:06:59;;;;;;;7.50;3.70;;;;;;;17.23;95.93;99532.02;130921;1266;107379;-80
2023/06/27 05:10:05;;;;;;;6.50;3.80;;;;;;;17.30;95.28;99538.02;130864;1257;107279;-79
2023/06/27 05:13:11;;;;;;;5.90;4.70;;;;;;;17.37;95.08;99540.59;130867;1254;106588;-79
2023/06/27 05:16:16;;;;;;;5.20;4.40;;;;;;;17.45;94.68;99538.27;130931;1256;107330;-80
2023/06/27 05:19:22;;;;;;;5.30;4.70;;;;;;;17.50;94.43;99541.85;130918;1254;107622;-80
2023/06/27 05:22:27;;;;;;;6.70;4.60;;;;;;;17.55;94.30;99547.80;130829;1264;107362;-79
2023/06/27 05:25:34;;;;;;;8.90;5.10;;;;;;;17.54;96.02;99553.23;130850;1257;107623;-79
2023/06/27 05:28:40;;;;;;;5.60;4.50;;;;;;;17.53;95.34;99553.13;131121;1256;107595;-79
2023/06/27 05:31:45;;;;;;;5.50;4.50;;;;;;;17.55;94.67;99556.72;130847;1251;107303;-79
2023/06/27 05:34:51;;;;;;;5.70;4.40;;;;;;;17.68;93.98;99559.98;131080;1255;108137;-79
2023/06/27 05:37:56;;;;;;;9.60;5.10;;;;;;;17.87;93.36;99563.94;131002;1257;107410;-80
2023/06/27 05:41:02;;;;;;;9.60;5.00;;;;;;;17.98;93.57;99563.17;131199;1256;107513;-79
2023/06/27 05:44:08;;;;;;;6.90;4.50;;;;;;;17.99;93.40;99569.96;131124;1257;107424;-80
2023/06/27 05:47:14;;;;;;;7.10;4.50;;;;;;;17.97;92.82;99577.08;131080;1257;107381;-79
2023/06/27 05:50:20;;;;;;;6.90;4.40;;;;;;;17.94;92.92;99585.88;131229;1257;107576;-79
2023/06/27 05:53:25;;;;;;;6.30;4.00;;;;;;;17.84;92.52;99585.42;130956;1264;107509;-79
2023/06/27 05:56:31;;;;;;;6.40;4.10;;;;;;;17.80;92.64;99588.71;130977;1257;107522;-78
2023/06/27 05:59:36;;;;;;;8.00;3.90;;;;;;;17.74;92.40;99587.16;130932;1256;107429;-82
2023/06/27 06:02:44;;;;;;;6.50;3.90;;;;;;;17.79;92.41;99591.16;130952;1261;107239;-78
2023/06/27 06:05:49;;;;;;;5.10;3.50;;;;;;;18.00;91.85;99584.95;130947;1257;106711;-78
2023/06/27 06:08:55;;;;;;;6.80;3.50;;;;;;;18.30;91.17;99586.16;130928;1270;107610;-79
2023/06/27 06:12:01;;;;;;;6.80;3.60;;;;;;;18.40;89.98;99584.86;130882;1256;107488;-78
2023/06/27 06:15:08;;;;;;;4.50;3.20;;;;;;;18.40;89.97;99582.45;130912;1261;107480;-78
2023/06/27 06:18:14;;;;;;;4.90;3.20;;;;;;;18.40;89.61;99586.27;131139;1256;108666;-79
2023/06/27 06:21:20;;;;;;;7.80;3.30;;;;;;;18.45;89.49;99592.10;131103;1257;107538;-78
2023/06/27 06:24:25;;;;;;;6.10;3.60;;;;;;;18.49;89.75;99596.01;131052;1258;107475;-78
2023/06/27 06:27:31;;;;;;;9.50;3.90;;;;;;;18.55;89.49;99605.48;131109;1257;107504;-77
2023/06/27 06:30:36;;;;;;;4.50;3.50;;;;;;;18.64;88.25;99601.08;131098;1262;107465;-78
2023/06/27 06:33:42;;;;;;;6.50;3.20;;;;;;;18.65;87.24;99609.37;131065;1258;107545;-78
2023/06/27 06:36:47;;;;;;;4.80;3.30;;;;;;;18.74;87.02;99616.16;130988;1267;107547;-79
2023/06/27 06:39:53;;;;;;;7.00;3.60;;;;;;;18.86;86.40;99612.92;130951;1257;108355;-79
2023/06/27 06:42:58;;;;;;;7.00;3.70;;;;;;;18.99;85.84;99617.36;130724;1256;105759;-79
2023/06/27 06:46:04;;;;;;;5.50;3.20;;;;;;;19.23;85.58;99616.59;131057;1257;107615;-77
2023/06/27 06:49:10;;;;;;;4.80;3.00;;;;;;;19.53;84.42;99613.11;130953;1257;107501;-80
2023/06/27 06:52:16;;;;;;;6.00;3.00;;;;;;;19.73;81.30;99623.48;131029;1257;107425;-77
2023/06/27 06:55:23;;;;;;;5.70;2.90;;;;;;;19.80;82.45;99624.55;130931;1256;107838;-78
2023/06/27 06:58:28;;;;;;;5.30;2.70;;;;;;;19.98;81.26;99628.16;130892;1264;107385;-77
2023/06/27 07:01:34;;;;;;;6.00;3.00;;;;;;;19.90;81.40;99631.31;131172;1262;108909;-78
2023/06/27 07:04:40;;;;;;;4.80;3.00;;;;;;;19.70;81.47;99631.77;131294;1254;107543;-78
2023/06/27 07:07:45;;;;;;;4.40;2.70;;;;;;;19.54;80.26;99636.13;131205;1254;107611;-78
2023/06/27 07:10:51;;;;;;;3.80;2.80;;;;;;;19.42;81.25;99639.52;131217;1253;107456;-78
2023/06/27 07:13:58;;;;;;;6.30;3.30;;;;;;;19.43;79.81;99635.46;131299;1251;106254;-77
2023/06/27 07:17:04;;;;;;;5.30;2.70;;;;;;;19.38;79.72;99636.94;131328;1254;107516;-81
2023/06/27 07:20:12;;;;;;;3.40;2.40;;;;;;;19.29;80.51;99632.59;131366;1253;106551;-80
2023/06/27 07:23:17;;;;;;;7.60;4.00;;;;;;;19.47;80.80;99635.22;131293;1254;107500;-77
2023/06/27 07:26:23;;;;;;;5.10;3.30;;;;;;;19.76;80.60;99624.54;131283;1253;107527;-78
2023/06/27 07:29:28;;;;;;;7.60;2.80;;;;;;;20.11;79.93;99627.77;131326;1248;107628;-78
2023/06/27 07:32:34;;;;;;;5.30;2.50;;;;;;;20.22;79.62;99626.78;131192;1254;107510;-78
2023/06/27 07:35:39;;;;;;;5.00;2.70;;;;;;;20.29;78.30;99634.66;131305;1258;107495;-78
2023/06/27 07:38:45;;;;;;;3.80;2.70;;;;;;;20.22;76.07;99631.94;131215;1254;107457;-78
2023/06/27 07:41:51;;;;;;;6.00;2.60;;;;;;;20.19;74.50;99632.45;131204;1253;107512;-77
2023/06/27 07:44:56;;;;;;;4.40;2.60;;;;;;;20.16;75.37;99635.20;131224;1248;107296;-78
2023/06/27 07:48:02;;;;;;;5.00;2.30;;;;;;;20.34;76.41;99629.05;131166;1254;107348;-80
2023/06/27 07:51:07;;;;;;;4.20;2.40;;;;;;;20.44;74.49;99628.90;131377;1254;106929;-78
2023/06/27 07:54:13;;;;;;;3.40;2.00;;;;;;;20.29;71.67;99629.62;131193;1254;107523;-78
2023/06/27 07:57:18;;;;;;;5.00;2.20;;;;;;;20.13;70.94;99631.52;131264;1248;107310;-77
2023/06/27 08:00:24;;;;;;;4.30;1.70;;;;;;;20.14;70.39;99626.20;131152;1263;107583;-79
2023/06/27 08:03:30;;;;;;;5.20;1.90;;;;;;;20.06;68.35;99628.86;131263;1253;107533;-79
2023/06/27 08:06:35;;;;;;;5.40;2.00;;;;;;;19.96;70.47;99627.41;131220;1253;107617;-78
2023/06/27 08:09:40;;;;;;;5.90;2.10;;;;;;;19.79;70.21;99637.09;131239;1261;107547;-79
2023/06/27 08:12:46;;;;;;;3.40;1.80;;;;;;;19.63;69.43;99634.60;131302;1253;109258;-78
2023/06/27 08:15:52;;;;;;;4.30;1.90;;;;;;;19.69;69.41;99628.38;131231;1248;107489;-79
2023/06/27 08:18:57;;;;;;;8.90;1.80;;;;;;;19.76;66.96;99629.79;131289;1257;107582;-79
2023/06/27 08:22:03;;;;;;;3.50;1.90;;;;;;;19.87;69.30;99633.35;131217;1254;107526;-78
2023/06/27 08:25:09;;;;;;;4.30;1.90;;;;;;;20.12;68.58;99639.30;131374;1261;107498;-79
2023/06/27 08:28:15;;;;;;;6.50;2.30;;;;;;;20.20;67.96;99639.19;131383;1262;107512;-78
2023/06/27 08:31:21;;;;;;;5.70;2.10;;;;;;;20.26;66.41;99640.10;131438;1258;107363;-78
2023/06/27 08:34:27;;;;;;;5.00;1.80;;;;;;;20.27;66.07;99636.17;131436;1254;107520;-78
2023/06/27 08:37:33;;;;;;;4.30;1.90;;;;;;;20.41;66.58;99645.36;131386;1261;107491;-78
2023/06/27 08:40:39;;;;;;;6.00;1.90;;;;;;;20.52;63.97;99639.07;131189;1253;107511;-78
2023/06/27 08:43:45;;;;;;;4.50;2.10;;;;;;;20.60;62.97;99637.61;131216;1254;107816;-78
2023/06/27 08:46:51;;;;;;;3.80;1.40;;;;;;;20.77;63.21;99647.31;131203;1248;108589;-78
2023/06/27 08:50:03;;;;;;;4.00;1.90;;;;;;;20.81;64.12;99650.74;131275;1254;107627;-78
2023/06/27 08:53:12;;;;;;;5.40;1.90;;;;;;;20.66;61.36;99654.62;131480;1256;107413;-78
2023/06/27 08:56:20;;;;;;;5.50;1.70;;;;;;;20.68;62.19;99644.80;131389;1248;107455;-78
2023/06/27 08:59:31;;;;;;;6.80;1.90;;;;;;;20.52;58.83;99662.45;131337;1254;107200;-78
2023/06/27 09:02:37;;;;;;;4.40;1.60;;;;;;;20.33;58.11;99662.45;131332;1248;107495;-78
2023/06/27 09:05:43;;;;;;;2.90;1.60;;;;;;;20.27;59.16;99661.75;131266;1254;107539;-78
2023/06/27 09:08:51;;;;;;;2.70;1.70;;;;;;;20.18;59.80;99663.25;131360;1248;107350;-78
2023/06/27 09:11:58;;;;;;;5.50;1.50;;;;;;;20.08;61.18;99656.70;131417;1263;107299;-78
2023/06/27 09:15:04;;;;;;;6.00;1.80;;;;;;;20.19;61.97;99660.73;131438;1248;106958;-78
2023/06/27 09:18:09;;;;;;;2.90;1.60;;;;;;;20.48;60.54;99652.21;131349;1254;108793;-78
2023/06/27 09:21:16;;;;;;;4.60;1.90;;;;;;;20.65;58.68;99661.48;131456;1253;107464;-79
2023/06/27 09:24:24;;;;;;;4.00;1.60;;;;;;;20.51;59.01;99662.42;131355;1254;107518;-79
2023/06/27 09:27:34;;;;;;;6.90;1.80;;;;;;;20.57;59.33;99661.63;131423;1257;107416;-80
2023/06/27 09:30:39;;;;;;;4.30;1.80;;;;;;;20.62;58.42;99665.70;131146;1253;107453;-78
2023/06/27 09:33:45;;;;;;;3.50;1.70;;;;;;;20.63;59.22;99663.82;131209;1254;107549;-79
2023/06/27 09:36:51;;;;;;;7.10;1.70;;;;;;;20.62;59.02;99674.95;131176;1262;107268;-78
2023/06/27 09:39:57;;;;;;;3.20;1.50;;;;;;;20.69;57.47;99671.77;131226;1254;107536;-79
2023/06/27 09:43:05;;;;;;;3.90;1.40;;;;;;;20.75;57.34;99668.35;131323;1248;107326;-78
2023/06/27 09:46:10;;;;;;;5.00;1.60;;;;;;;20.81;54.68;99678.31;131221;1254;107481;-78
2023/06/27 09:49:18;;;;;;;3.60;1.60;;;;;;;20.86;54.68;99671.89;131277;1248;107334;-78
2023/06/27 09:52:23;;;;;;;6.10;1.60;;;;;;;21.03;56.14;99670.52;131276;1253;108126;-79
2023/06/27 09:55:29;;;;;;;4.60;1.70;;;;;;;20.97;53.99;99685.63;131234;1261;107578;-79
2023/06/27 09:58:35;;;;;;;3.40;1.60;;;;;;;20.99;57.14;99684.15;131273;1248;107320;-78
2023/06/27 10:01:41;;;;;;;3.20;1.60;;;;;;;21.18;56.25;99681.71;131228;1252;107509;-78
2023/06/27 10:04:46;;;;;;;3.50;1.50;;;;;;;21.40;56.06;99683.55;131333;1255;107438;-79
2023/06/27 10:07:53;;;;;;;4.00;1.40;;;;;;;21.58;55.39;99677.07;131403;1248;107221;-79
2023/06/27 10:10:59;;;;;;;3.70;1.50;;;;;;;21.59;55.92;99684.89;131318;1261;106713;-78
2023/06/27 10:14:05;;;;;;;2.80;1.40;;;;;;;21.47;55.07;99684.86;131205;1254;107452;-78
2023/06/27 10:17:17;;;;;;;5.10;1.50;;;;;;;21.50;54.72;99687.16;131278;1254;107637;-78
2023/06/27 10:20:23;;;;;;;4.60;1.40;;;;;;;21.52;53.57;99681.51;131323;1261;107550;-79
2023/06/27 10:23:32;;;;;;;3.80;1.60;;;;;;;21.70;54.84;99680.02;131315;1254;108594;-78
2023/06/27 10:26:38;;;;;;;3.40;1.60;;;;;;;22.11;53.86;99678.44;131393;1253;107522;-79
2023/06/27 10:29:44;;;;;;;6.00;1.70;;;;;;;22.34;52.66;99675.40;131374;1253;107453;-78
2023/06/27 10:32:50;;;;;;;6.70;1.40;;;;;;;22.16;50.78;99686.41;131399;1254;107899;-78
2023/06/27 10:36:01;;;;;;;5.10;1.50;;;;;;;21.84;49.06;99689.06;131277;1248;106569;-79
2023/06/27 10:39:26;;;;;;;4.30;1.60;;;;;;;21.78;49.45;99682.62;131236;1250;107830;-79
2023/06/27 10:42:33;;;;;;;2.60;1.30;;;;;;;22.00;50.55;99676.59;131268;1253;107694;-78
2023/06/27 10:45:39;;;;;;;4.70;1.40;;;;;;;22.10;49.86;99682.31;131315;1252;106534;-78
2023/06/27 10:48:54;;;;;;;5.80;1.30;;;;;;;22.28;49.65;99676.03;131307;1254;107501;-79
2023/06/27 10:52:03;;;;;;;5.50;1.40;;;;;;;22.49;47.70;99677.56;131374;1263;106892;-78
2023/06/27 10:55:27;;;;;;;5.20;1.90;;;;;;;22.47;48.84;99672.04;131266;1248;108614;-78
2023/06/27 10:58:44;;;;;;;2.80;1.40;;;;;;;22.40;47.54;99676.21;131210;1248;107297;-78
2023/06/27 11:01:59;;;;;;;4.10;1.50;;;;;;;22.33;49.43;99672.29;131444;1254;107206;-79
2023/06/27 11:05:12;;;;;;;3.80;1.40;;;;;;;22.21;47.82;99675.36;131370;1260;107554;-79
2023/06/27 11:08:19;;;;;;;5.20;1.30;;;;;;;22.13;47.84;99668.36;131302;1253;107530;-78
2023/06/27 11:11:30;;;;;;;3.50;1.30;;;;;;;22.12;46.73;99663.84;131243;1254;107295;-81
2023/06/27 11:14:38;;;;;;;3.70;1.40;;;;;;;22.21;48.20;99658.62;131205;1254;107499;-79
2023/06/27 11:17:45;;;;;;;3.20;1.10;;;;;;;22.15;46.08;99670.46;131414;1253;107519;-78
2023/06/27 11:20:51;;;;;;;2.70;1.40;;;;;;;22.10;47.34;99665.91;131464;1252;107546;-78
2023/06/27 11:23:59;;;;;;;4.40;1.20;;;;;;;22.15;45.17;99656.33;131399;1253;107414;-79
2023/06/27 11:27:07;;;;;;;8.40;1.40;;;;;;;22.01;47.04;99658.02;131302;1254;106609;-79
2023/06/27 11:30:13;;;;;;;1.90;1.10;;;;;;;22.11;46.56;99658.26;131341;1254;107533;-79
2023/06/27 11:33:20;;;;;;;5.30;1.40;;;;;;;22.26;45.93;99653.07;131271;1253;107539;-79
2023/06/27 11:36:26;;;;;;;4.00;1.00;;;;;;;22.34;45.40;99652.52;131342;1248;107504;-78
2023/06/27 11:39:34;;;;;;;4.10;1.30;;;;;;;22.43;46.73;99649.93;131264;1253;107518;-79
2023/06/27 11:42:40;;;;;;;2.20;1.30;;;;;;;22.35;45.74;99655.39;131208;1248;107568;-78
2023/06/27 11:45:49;;;;;;;3.50;1.40;;;;;;;22.21;46.53;99651.12;131262;1253;107484;-78
2023/06/27 11:48:54;;;;;;;4.70;2.40;;;;;;;22.28;45.26;99660.66;131351;1254;107417;-79
2023/06/27 11:52:00;;;;;;;4.90;1.30;;;;;;;22.05;45.05;99649.67;131396;1253;105899;-79
2023/06/27 11:55:07;;;;;;;5.20;1.30;;;;;;;22.18;45.98;99650.23;131308;1247;107409;-78
2023/06/27 11:58:13;;;;;;;5.60;1.20;;;;;;;22.37;46.20;99655.72;131234;1254;107391;-79
2023/06/27 12:01:19;;;;;;;3.30;1.30;;;;;;;22.44;45.40;99648.16;131262;1248;107500;-79
2023/06/27 12:04:25;;;;;;;4.30;1.20;;;;;;;22.48;44.77;99649.15;131222;1260;108104;-79
2023/06/27 12:07:32;;;;;;;2.40;1.40;;;;;;;22.49;44.32;99645.86;131221;1253;108017;-78
2023/06/27 12:10:56;;;;;;;7.90;1.40;;;;;;;22.57;43.41;99644.46;131270;1253;108630;-79
2023/06/27 12:14:02;;;;;;;4.50;1.30;;;;;;;22.44;42.34;99635.98;131244;1248;107463;-79
2023/06/27 12:17:22;;;;;;;3.20;1.40;;;;;;;22.10;42.32;99639.13;131267;1254;107267;-79
2023/06/27 12:20:40;;;;;;;2.70;1.30;;;;;;;21.85;41.72;99641.52;131435;1248;108519;-75
2023/06/27 12:23:46;;;;;;;2.90;1.20;;;;;;;21.87;42.40;99636.42;131276;1248;107481;-77
2023/06/27 12:26:51;;;;;;;3.50;1.10;;;;;;;21.94;42.45;99641.00;131268;1253;107538;-79
2023/06/27 12:29:57;;;;;;;4.40;1.50;;;;;;;22.08;41.76;99630.99;131392;1253;108470;-80
2023/06/27 12:33:03;;;;;;;4.10;1.30;;;;;;;22.13;41.49;99637.38;131479;1254;108444;-80
2023/06/27 12:36:09;;;;;;;5.70;1.30;;;;;;;22.12;41.44;99625.23;131447;1254;107525;-80
2023/06/27 12:39:14;;;;;;;3.60;1.30;;;;;;;22.10;40.42;99628.52;131324;1253;235532;-79
2023/06/27 12:42:20;;;;;;;4.10;1.10;;;;;;;22.09;42.00;99616.16;131523;1251;107476;-79
2023/06/27 12:45:26;;;;;;;3.30;1.30;;;;;;;22.17;41.78;99620.98;131461;1252;109236;-80
2023/06/27 12:48:33;;;;;;;3.00;1.40;;;;;;;22.14;40.90;99617.83;131506;1253;107599;-79
2023/06/27 12:51:38;;;;;;;4.00;1.30;;;;;;;22.08;40.03;99613.65;131555;1253;107441;-80
2023/06/27 12:54:44;;;;;;;2.90;1.30;;;;;;;22.21;41.86;99605.94;131282;1264;107488;-80
2023/06/27 12:57:50;;;;;;;6.00;1.50;;;;;;;22.37;41.80;99606.23;131417;1253;106910;-79
2023/06/27 13:00:56;;;;;;;3.10;1.20;;;;;;;22.45;41.41;99604.42;131293;1248;107585;-80
2023/06/27 13:04:02;;;;;;;3.90;1.40;;;;;;;22.49;40.80;99603.62;131318;1252;107770;-80
2023/06/27 13:07:08;;;;;;;2.50;1.20;;;;;;;22.51;39.39;99597.92;131360;1247;107329;-80
2023/06/27 13:10:14;;;;;;;2.80;1.20;;;;;;;22.57;40.02;99593.73;131608;1248;107404;-79
2023/06/27 13:13:20;;;;;;;2.20;1.20;;;;;;;22.64;39.80;99593.95;131519;1253;107240;-81
2023/06/27 13:16:26;;;;;;;4.60;1.30;;;;;;;22.58;39.04;99598.52;131413;1248;109301;-81
2023/06/27 13:19:34;;;;;;;2.30;1.40;;;;;;;22.26;39.11;99597.19;131344;1254;106621;-81
2023/06/27 13:22:40;;;;;;;6.20;2.10;;;;;;;22.20;39.24;99591.42;131323;1253;107607;-82
2023/06/27 13:25:47;;;;;;;3.80;1.70;;;;;;;22.32;40.13;99595.34;131375;1253;107525;-80
2023/06/27 13:28:52;;;;;;;5.60;1.40;;;;;;;22.56;42.02;99590.99;131455;1253;107571;-79
2023/06/27 13:31:58;;;;;;;5.50;2.00;;;;;;;22.66;42.62;99602.84;131297;1248;107454;-79
2023/06/27 13:35:04;;;;;;;7.90;2.10;;;;;;;22.54;42.85;99604.23;131462;1263;107471;-80
2023/06/27 13:38:09;;;;;;;6.30;1.50;;;;;;;22.55;43.30;99601.48;131626;1253;108739;-79
2023/06/27 13:41:15;;;;;;;5.10;1.60;;;;;;;22.47;43.23;99606.03;131365;1254;106654;-80
2023/06/27 13:44:21;;;;;;;3.70;1.50;;;;;;;22.46;43.50;99612.96;131346;1252;107669;-79
2023/06/27 13:47:27;;;;;;;4.20;1.80;;;;;;;22.44;43.43;99613.31;131346;1253;107499;-79
2023/06/27 13:50:32;;;;;;;2.40;1.40;;;;;;;22.40;43.77;99605.69;131393;1253;108574;-79
2023/06/27 13:53:38;;;;;;;3.70;1.50;;;;;;;22.36;43.12;99607.86;131329;1253;106531;-79
2023/06/27 13:56:45;;;;;;;4.50;1.40;;;;;;;22.28;43.61;99608.48;131318;1252;107519;-80
2023/06/27 13:59:51;;;;;;;3.20;1.40;;;;;;;22.33;43.11;99610.91;131507;1254;107475;-79
2023/06/27 14:03:00;;;;;;;3.60;1.60;;;;;;;22.31;43.57;99603.16;131460;1264;107373;-79
2023/06/27 14:06:14;;;;;;;3.80;1.50;;;;;;;22.40;43.69;99602.55;131543;1247;107482;-79
2023/06/27 14:09:20;;;;;;;3.60;1.50;;;;;;;22.51;43.60;99602.73;131292;1253;107497;-79
2023/06/27 14:12:25;;;;;;;4.00;1.60;;;;;;;22.52;43.70;99603.61;131249;1252;107573;-79
2023/06/27 14:15:31;;;;;;;3.00;1.40;;;;;;;22.37;44.12;99601.62;131082;1254;107507;-80
2023/06/27 14:18:37;;;;;;;5.20;1.60;;;;;;;22.53;43.81;99592.10;131499;1253;106810;-80
2023/06/27 14:21:43;;;;;;;2.40;1.40;;;;;;;22.58;42.83;99604.46;131464;1253;107520;-80